Big Bear Station Historical Data
Daily Summary for June 23, 2019 Units:  English    Metric   Both
Next Day »
Daily Weekly Monthly Yearly Custom
  High: Low: Average:
Temperature: 77 °F 40.8 °F 58.6 °F
Dew Point: 45.3 °F 24.9 °F 35.4 °F
Humidity: 79% 19% 46%
Wind Speed: 5.8mph 0mph 0.3mph
Wind Gust: -999mph - -
Wind- - NW
Pressure: 23.61 in 23.56 in -
Precipitation: 0 in    
Historical Graphs
 
 
Tabular Data for June 23, 2019
Time Temperature Dew Point Pressure Wind Wind Speed Wind Gust Humidity Rainfall Rate (Hourly)
00:14 46.6 °F 30.8 °F 23.59 in Calm   -999 mph 54% 0.00 in
00:29 46.2 °F 31.8 °F 23.59 in Calm   -999 mph 57% 0.00 in
00:44 46 °F 31.2 °F 23.58 in Calm   -999 mph 56% 0.00 in
01:00 45.5 °F 31.1 °F 23.58 in Calm   -999 mph 57% 0.00 in
01:15 45.1 °F 30.8 °F 23.58 in Calm   -999 mph 57% 0.00 in
01:30 44.8 °F 30.1 °F 23.58 in Calm   -999 mph 56% 0.00 in
01:45 44.4 °F 31 °F 23.58 in Calm   -999 mph 59% 0.00 in
02:00 43.9 °F 32.1 °F 23.58 in Calm   -999 mph 63% 0.00 in
02:16 43.9 °F 30.9 °F 23.57 in Calm   -999 mph 60% 0.00 in
02:31 43.7 °F 33.1 °F 23.57 in Calm   -999 mph 66% 0.00 in
02:46 43.5 °F 33.6 °F 23.57 in Calm   -999 mph 68% 0.00 in
03:01 43.5 °F 32.1 °F 23.57 in Calm   -999 mph 64% 0.00 in
03:16 43.3 °F 31.5 °F 23.57 in Calm   -999 mph 63% 0.00 in
03:32 43.2 °F 33.4 °F 23.57 in Calm   -999 mph 68% 0.00 in
03:47 43.3 °F 33.1 °F 23.56 in Calm   -999 mph 67% 0.00 in
04:02 43 °F 33.2 °F 23.56 in Calm   -999 mph 68% 0.00 in
04:17 42.6 °F 33.9 °F 23.56 in Calm   -999 mph 71% 0.00 in
04:33 42.6 °F 34.9 °F 23.57 in Calm   -999 mph 74% 0.00 in
04:48 42.3 °F 34.6 °F 23.57 in Calm   -999 mph 74% 0.00 in
05:03 41.9 °F 33.9 °F 23.57 in Calm   -999 mph 73% 0.00 in
05:18 41.4 °F 33.4 °F 23.58 in Calm   -999 mph 73% 0.00 in
05:33 40.8 °F 32.8 °F 23.58 in Calm   -999 mph 73% 0.00 in
05:49 40.8 °F 33.2 °F 23.58 in Calm   -999 mph 74% 0.00 in
06:04 40.8 °F 32.8 °F 23.58 in Calm   -999 mph 73% 0.00 in
06:19 40.8 °F 33.2 °F 23.58 in Calm   -999 mph 74% 0.00 in
06:34 41.2 °F 34.5 °F 23.59 in Calm   -999 mph 77% 0.00 in
06:49 41.7 °F 35.7 °F 23.59 in Calm   -999 mph 79% 0.00 in
07:05 43 °F 36.3 °F 23.59 in Calm   -999 mph 77% 0.00 in
07:20 43.7 °F 37.3 °F 23.59 in Calm   -999 mph 78% 0.00 in
07:35 45.7 °F 38.6 °F 23.59 in Calm   -999 mph 76% 0.00 in
07:50 46 °F 38.2 °F 23.59 in Calm   -999 mph 74% 0.00 in
08:05 48 °F 40.8 °F 23.60 in Calm   -999 mph 76% 0.00 in
08:21 50.9 °F 37.5 °F 23.60 in Calm   -999 mph 60% 0.00 in
08:36 52.5 °F 35.9 °F 23.60 in Calm   -999 mph 53% 0.00 in
08:51 54.9 °F 34.5 °F 23.60 in Calm   -999 mph 46% 0.00 in
09:06 57.9 °F 28.2 °F 23.60 in Calm   -999 mph 32% 0.00 in
09:21 61 °F 24.9 °F 23.60 in Calm   -999 mph 25% 0.00 in
09:37 63.1 °F 27.6 °F 23.60 in Calm   -999 mph 26% 0.00 in
09:52 65.3 °F 26.5 °F 23.60 in Calm   -999 mph 23% 0.00 in
10:07 66.4 °F 27.5 °F 23.60 in Calm   -999 mph 23% 0.00 in
10:22 67.3 °F 27.1 °F 23.60 in Calm   -999 mph 22% 0.00 in
10:38 67.6 °F 26.3 °F 23.60 in Calm   -999 mph 21% 0.00 in
10:53 68.2 °F 26.8 °F 23.60 in Calm   -999 mph 21% 0.00 in
11:08 69.3 °F 25.3 °F 23.60 in Calm   -999 mph 19% 0.00 in
11:23 68.9 °F 26.2 °F 23.60 in Calm   -999 mph 20% 0.00 in
11:38 69.4 °F 34 °F 23.60 in Calm   -999 mph 27% 0.00 in
11:54 72 °F 35.2 °F 23.60 in Calm   -999 mph 26% 0.00 in
12:09 72.5 °F 36.6 °F 23.61 in Calm   -999 mph 27% 0.00 in
12:24 74.1 °F 40.7 °F 23.60 in Calm   -999 mph 30% 0.00 in
12:39 74.7 °F 42.1 °F 23.60 in Calm   -999 mph 31% 0.00 in
12:55 75.2 °F 40.8 °F 23.60 in Calm   -999 mph 29% 0.00 in
13:10 74.5 °F 41 °F 23.60 in North 2.7 mph -999 mph 30% 0.00 in
13:25 75.6 °F 41.1 °F 23.59 in Calm   -999 mph 29% 0.00 in
13:40 75.9 °F 42.2 °F 23.59 in Calm   -999 mph 30% 0.00 in
13:56 75.7 °F 45.3 °F 23.59 in NNW 2.7 mph -999 mph 34% 0.00 in
14:11 74.7 °F 43.7 °F 23.59 in Calm   -999 mph 33% 0.00 in
14:26 74.7 °F 42.1 °F 23.59 in NW 2.7 mph -999 mph 31% 0.00 in
14:41 76.8 °F 43.9 °F 23.58 in North 1.7 mph -999 mph 31% 0.00 in
14:56 76.1 °F 41.5 °F 23.58 in WNW 5.8 mph -999 mph 29% 0.00 in
15:12 77 °F 44.9 °F 23.58 in Calm   -999 mph 32% 0.00 in
15:27 75.2 °F 42.5 °F 23.58 in Calm   -999 mph 31% 0.00 in
15:42 75.2 °F 40.8 °F 23.58 in NW 4.2 mph -999 mph 29% 0.00 in
15:57 75.2 °F 42.5 °F 23.57 in Calm   -999 mph 31% 0.00 in
16:12 74.8 °F 43 °F 23.57 in Calm   -999 mph 32% 0.00 in
16:28 73.9 °F 44.5 °F 23.57 in Calm   -999 mph 35% 0.00 in
16:43 75 °F 42.3 °F 23.57 in NW 2.2 mph -999 mph 31% 0.00 in
16:58 74.1 °F 39.8 °F 23.57 in Calm   -999 mph 29% 0.00 in
17:14 76.3 °F 41.7 °F 23.56 in WNW 3.2 mph -999 mph 29% 0.00 in
17:29 76.5 °F 42.8 °F 23.56 in Calm   -999 mph 30% 0.00 in
17:44 74.7 °F 42.1 °F 23.56 in Calm   -999 mph 31% 0.00 in
17:59 75.2 °F 44.1 °F 23.56 in Calm   -999 mph 33% 0.00 in
18:14 72.1 °F 42.2 °F 23.56 in Calm   -999 mph 34% 0.00 in
18:30 74.1 °F 43.2 °F 23.56 in Calm   -999 mph 33% 0.00 in
18:45 72 °F 42.1 °F 23.56 in Calm   -999 mph 34% 0.00 in
19:00 70.9 °F 41.9 °F 23.56 in Calm   -999 mph 35% 0.00 in
19:15 69.1 °F 41 °F 23.56 in Calm   -999 mph 36% 0.00 in
19:30 65.7 °F 40.1 °F 23.56 in Calm   -999 mph 39% 0.00 in
19:46 63.7 °F 39.6 °F 23.56 in Calm   -999 mph 41% 0.00 in
20:01 61.9 °F 39.2 °F 23.56 in Calm   -999 mph 43% 0.00 in
20:16 60.1 °F 38.1 °F 23.56 in Calm   -999 mph 44% 0.00 in
20:31 59.2 °F 34.9 °F 23.56 in Calm   -999 mph 40% 0.00 in
20:46 57.9 °F 32.4 °F 23.57 in Calm   -999 mph 38% 0.00 in
21:02 57 °F 31.6 °F 23.57 in Calm   -999 mph 38% 0.00 in
21:17 55.8 °F 32.4 °F 23.57 in Calm   -999 mph 41% 0.00 in
21:32 55 °F 31.7 °F 23.58 in Calm   -999 mph 41% 0.00 in
21:47 54.3 °F 31.1 °F 23.58 in Calm   -999 mph 41% 0.00 in
22:02 54.1 °F 30.9 °F 23.58 in Calm   -999 mph 41% 0.00 in
22:18 53.1 °F 31.2 °F 23.58 in Calm   -999 mph 43% 0.00 in
22:33 52.3 °F 30.5 °F 23.58 in Calm   -999 mph 43% 0.00 in
22:48 51.8 °F 29.4 °F 23.58 in Calm   -999 mph 42% 0.00 in
23:03 50.9 °F 29.8 °F 23.58 in Calm   -999 mph 44% 0.00 in
23:19 50.7 °F 28.4 °F 23.57 in Calm   -999 mph 42% 0.00 in
23:34 50 °F 28.4 °F 23.57 in Calm   -999 mph 43% 0.00 in
23:49 49.5 °F 29.6 °F 23.57 in Calm   -999 mph 46% 0.00 in
Big Bear CA Weather